Flight Track Log - Related Links

Times and Time Zones

All times are in EDT time to prevent confusion due to time zone crossing. See the ASQ5717 flight status page for this flight to view local times or setup timezone preferences in your user account.

Time Position Orientation Groundspeed Altitude Reporting Facility
EDT Latitude Longitude Course Direction KTS MPH feet Rate Location/Type
Sun 05:41:00 AM 44.2057 -73.2444 196° South  Level FlightAware Approximate
Sun 05:42:00 AM 44.1191 -73.2791 196° South  Level FlightAware Approximate
Sun 05:42:24 AM 44.2714 -73.1939 195° South 276 318 8,900  Level Boston Center
Sun 05:43:00 AM 44.0324 -73.3138 196° South  Level FlightAware Approximate
Sun 05:43:25 AM 44.1961 -73.2247 196° South 281 323 11,300  Level Boston Center
Sun 05:44:00 AM 43.9457 -73.3484 196° South  Level FlightAware Approximate
Sun 05:44:26 AM 44.1189 -73.2586 197° South 286 329 13,300  Level Boston Center
Sun 05:45:00 AM 43.8588 -73.3819 195° South  Level FlightAware Approximate
Sun 05:45:24 AM 44.0353 -73.2919 196° South 303 349 14,900  Level Boston Center
Sun 05:46:00 AM 43.7717 -73.4141 195° South  Level FlightAware Approximate
Sun 05:46:26 AM 43.9369 -73.3308 196° South 325 374 16,500  Level Boston Center
Sun 05:47:00 AM 43.6845 -73.4462 195° South  Level FlightAware Approximate
Sun 05:47:27 AM 43.8472 -73.3669 196° South 335 386 18,200  Level Boston Center
Sun 05:48:24 AM 43.7550 -73.4058 197° South 340 391 20,100 1,750 Climbing Boston Center
Sun 05:49:27 AM 43.6778 -73.4361 196° South 340 391 21,700 1,525 Climbing Boston Center
Sun 05:50:26 AM 43.5878 -73.4719 196° South 340 391 23,200 1,311 Climbing Boston Center
Sun 05:51:26 AM 43.4978 -73.5047 195° South 340 391 24,300 1,017 Climbing Boston Center
Sun 05:52:24 AM 43.4039 -73.5431 197° South 345 397 25,200 908 Climbing Boston Center
Sun 05:53:25 AM 43.3075 -73.5814 196° South 351 404 26,100 850 Climbing Boston Center
Sun 05:54:24 AM 43.2114 -73.6194 196° South 358 412 26,900 689 Climbing Boston Center
Sun 05:55:27 AM 43.1025 -73.6628 196° South 363 418 27,500 600 Climbing Boston Center
Sun 05:56:24 AM 43.0000 -73.7033 196° South 375 432 28,100 555 Climbing Boston Center
Sun 05:57:26 AM 42.8972 -73.7467 197° South 380 437 28,600 496 Climbing Boston Center
Sun 05:58:25 AM 42.7947 -73.7842 195° South 380 437 29,100 508 Climbing Boston Center
Sun 05:59:24 AM 42.6942 -73.8300 199° South 380 437 29,600 454 Climbing Boston Center
Sun 06:00:24 AM 42.6103 -73.8675 198° South 385 443 30,000 198 Climbing Boston Center
Sun 06:01:25 AM 42.4908 -73.9239 199° South 385 443 30,000  Level Boston Center
Sun 06:02:25 AM 42.3839 -73.9719 198° South 391 450 30,000  Level Boston Center
Sun 06:03:27 AM 42.2789 -74.0172 198° South 397 457 30,000  Level Boston Center
Sun 06:04:24 AM 42.1703 -74.0425 190° South 402 463 30,000  Level Boston Center
Sun 06:05:26 AM 42.0636 -74.0619 188° South 402 463 30,000  Level Boston Center
Sun 06:06:26 AM 41.9650 -74.1097 200° South 389 448 30,000  Level Boston Center
Sun 06:08:36 AM 41.7403 -74.2097 198° South 408 470 30,000  Level New York Center
Sun 06:09:34 AM 41.6306 -74.2625 200° South 414 476 30,000  Level New York Center
Sun 06:10:34 AM 41.5378 -74.3075 200° South 414 476 30,000  Level New York Center
Sun 06:11:36 AM 41.4281 -74.3542 198° South 409 471 30,000 -197 Level New York Center
Sun 06:12:36 AM 41.3139 -74.4089 200° South 422 486 29,600 -508 Descending New York Center
Sun 06:13:34 AM 41.1956 -74.4603 198° South 443 510 29,000 -555 Descending New York Center
Sun 06:14:35 AM 41.0794 -74.5117 198° South 450 518 28,500 -496 Descending New York Center
Sun 06:15:35 AM 40.9567 -74.5708 200° South 444 511 28,000 -250 Descending New York Center
Sun 06:16:35 AM 40.8789 -74.6544 219° Southwest 417 480 28,000  Level New York Center
Sun 06:17:33 AM 40.8231 -74.7719 238° Southwest 387 445 28,000  Level New York Center
Sun 06:18:34 AM 40.7689 -74.8919 239° Southwest 387 445 28,000  Level New York Center
Sun 06:19:36 AM 40.7144 -75.0147 240° Southwest 387 445 28,000  Level New York Center
Sun 06:20:34 AM 40.6603 -75.1317 239° Southwest 387 445 28,000  Level New York Center
Sun 06:21:36 AM 40.6033 -75.2592 240° Southwest 387 445 28,000  Level New York Center
Sun 06:22:34 AM 40.5486 -75.3786 239° Southwest 387 445 28,000 -356 Level New York Center
Sun 06:23:34 AM 40.4919 -75.4975 238° Southwest 387 445 27,300 -1,636 Descending New York Center
Sun 06:24:35 AM 40.4392 -75.6139 239° Southwest 387 445 24,700 -2,600 Descending New York Center
Sun 06:25:34 AM 40.3844 -75.7328 239° Southwest 387 445 22,100 -2,350 Descending New York Center
Sun 06:26:35 AM 40.3336 -75.8461 240° Southwest 380 437 20,000 -1,050 Descending New York Center
Sun 06:27:34 AM 40.2697 -75.9722 236° Southwest 380 437 20,000 -403 Level New York Center
Sun 06:28:34 AM 40.2169 -76.0850 239° Southwest 375 432 19,200 -893 Descending New York Center
Sun 06:29:35 AM 40.1731 -76.1794 239° Southwest 360 414 18,200 -984 Descending New York Center
Sun 06:30:36 AM 40.1175 -76.2975 238° Southwest 350 403 17,200 -1,008 Descending New York Center
Sun 06:31:34 AM 40.0686 -76.4047 239° Southwest 350 403 16,200 -673 Descending New York Center
Sun 06:33:52 AM 39.9500 -76.6500 238° Southwest 360 414 15,000 -279 Descending Potomac TRACON
Sun 06:35:00 AM 39.8923 -76.7716 238° Southwest  Level FlightAware Approximate
Sun 06:35:52 AM 39.8500 -76.8667 238° Southwest 312 359 15,000  Level Potomac TRACON
Sun 06:36:46 AM 39.8167 -76.9333 237° Southwest 258 297 14,400 -737 Descending Potomac TRACON
Sun 06:37:46 AM 39.7833 -77.0167 243° Southwest 254 292 13,600 -889 Descending Potomac TRACON
Sun 06:38:34 AM 39.7500 -77.0833 237° Southwest 256 295 12,800 -895 Descending Potomac TRACON
Sun 06:39:40 AM 39.7167 -77.1667 243° Southwest 260 299 11,900 -857 Descending Potomac TRACON
Sun 06:40:40 AM 39.6833 -77.2500 243° Southwest 254 292 11,000 -947 Descending Potomac TRACON
Sun 06:41:34 AM 39.6500 -77.3167 237° Southwest 245 282 10,100 -632 Descending Potomac TRACON
Sun 06:42:34 AM 39.5667 -77.3500 197° South 299 344 9,800 -900 Descending Potomac TRACON
Sun 06:43:34 AM 39.4833 -77.3500 180° South 293 337 8,300 -1,421 Descending Potomac TRACON
Sun 06:44:28 AM 39.4167 -77.3667 191° South 275 316 7,100 -1,111 Descending Potomac TRACON
Sun 06:45:22 AM 39.3500 -77.3667 180° South 269 310 6,300 -1,000 Descending Potomac TRACON
Sun 06:46:16 AM 39.2833 -77.3667 180° South 249 287 5,300 -895 Descending Potomac TRACON
Sun 06:47:16 AM 39.2167 -77.3667 180° South 233 268 4,600 -650 Descending Potomac TRACON
Sun 06:48:16 AM 39.1667 -77.3667 180° South 224 258 4,000 -316 Descending Potomac TRACON
Sun 06:49:10 AM 39.1000 -77.3500 169° South 232 267 4,000  Level Potomac TRACON
Sun 06:50:04 AM 39.0500 -77.3667 195° South 224 258 4,000  Level Potomac TRACON
Sun 06:51:04 AM 38.9833 -77.3667 180° South 240 276 4,000  Level Potomac TRACON
Sun 06:52:04 AM 38.9167 -77.3667 180° South 233 268 4,000  Level Potomac TRACON
Sun 06:53:04 AM 38.8500 -77.3667 180° South 228 262 4,000 -450 Level Potomac TRACON
Sun 06:54:04 AM 38.7833 -77.3667 180° South 223 257 3,100 -500 Descending Potomac TRACON
Sun 06:55:04 AM 38.7500 -77.4000 218° Southwest 200 230 3,000 -53 Descending Potomac TRACON
Sun 06:55:58 AM 38.7833 -77.4333 322° Northwest 179 206 3,000  Level Potomac TRACON

Login

Don't have an account? Register now (free) for customized features, flight alerts, and more!